Time,TemperatureF,DewpointF,PressureIn,WindDirection,WindDirectionDegrees,WindSpeedMPH,WindSpeedGustMPH,Humidity,HourlyPrecipIn,Conditions,Clouds,dailyrainin,SoftwareType,DateUTC
2013-04-09 00:12:00,58.5,44.2,29.79,NW,315,0.0,-999.0,59,-99.99,,,0.00,Acu-Link.com,2013-04-09 04:12:00,
2013-04-09 00:27:00,59.2,44.4,29.79,WNW,292,1.1,-999.0,58,-99.99,,,0.00,Acu-Link.com,2013-04-09 04:27:00,
2013-04-09 00:42:00,58.8,44.5,29.80,NNW,337,1.1,-999.0,59,-99.99,,,0.00,Acu-Link.com,2013-04-09 04:42:00,
2013-04-09 00:57:00,58.5,44.2,29.80,West,270,0.0,-999.0,59,-99.99,,,0.00,Acu-Link.com,2013-04-09 04:57:00,
2013-04-09 01:13:00,59.0,44.7,29.80,NNW,337,1.7,-999.0,59,-99.99,,,0.00,Acu-Link.com,2013-04-09 05:13:00,
2013-04-09 01:28:00,61.0,47.5,29.79,West,270,0.0,-999.0,61,-99.99,,,0.00,Acu-Link.com,2013-04-09 05:28:00,
2013-04-09 01:43:00,61.3,45.9,29.80,NNE,22,0.0,-999.0,57,-99.99,,,0.00,Acu-Link.com,2013-04-09 05:43:00,
2013-04-09 01:58:00,60.6,46.2,29.79,WNW,292,1.7,-999.0,59,-99.99,,,0.00,Acu-Link.com,2013-04-09 05:58:00,
2013-04-09 02:29:00,63.0,48.0,29.80,West,270,4.7,-999.0,58,-99.99,,,0.00,Acu-Link.com,2013-04-09 06:29:00,
2013-04-09 02:44:00,64.4,48.8,29.80,NNW,337,3.7,-999.0,57,-99.99,,,0.00,Acu-Link.com,2013-04-09 06:44:00,
2013-04-09 02:59:00,64.0,50.7,29.80,WNW,292,4.7,-999.0,62,-99.99,,,0.00,Acu-Link.com,2013-04-09 06:59:00,
2013-04-09 03:14:00,63.7,50.4,29.82,NW,315,1.1,-999.0,62,-99.99,,,0.00,Acu-Link.com,2013-04-09 07:14:00,
2013-04-09 03:29:00,63.7,50.0,29.81,WNW,292,5.3,-999.0,61,-99.99,,,0.00,Acu-Link.com,2013-04-09 07:29:00,
2013-04-09 03:45:00,63.5,49.4,29.82,West,270,1.7,-999.0,60,-99.99,,,0.00,Acu-Link.com,2013-04-09 07:45:00,
2013-04-09 04:00:00,62.4,49.2,29.82,SSW,202,1.7,-999.0,62,-99.99,,,0.00,Acu-Link.com,2013-04-09 08:00:00,
2013-04-09 04:31:00,61.3,49.0,29.83,East,90,0.0,-999.0,64,-99.99,,,0.00,Acu-Link.com,2013-04-09 08:31:00,
2013-04-09 04:47:00,59.9,48.5,29.83,WNW,292,1.1,-999.0,66,-99.99,,,0.00,Acu-Link.com,2013-04-09 08:47:00,
2013-04-09 05:02:00,59.4,48.4,29.83,West,270,2.7,-999.0,67,-99.99,,,0.00,Acu-Link.com,2013-04-09 09:02:00,
2013-04-09 05:17:00,60.3,49.3,29.83,West,270,3.7,-999.0,67,-99.99,,,0.00,Acu-Link.com,2013-04-09 09:17:00,
2013-04-09 05:32:00,59.9,49.3,29.85,West,270,2.7,-999.0,68,-99.99,,,0.00,Acu-Link.com,2013-04-09 09:32:00,
2013-04-09 05:47:00,59.7,49.1,29.85,ESE,112,2.7,-999.0,68,-99.99,,,0.00,Acu-Link.com,2013-04-09 09:47:00,
2013-04-09 06:02:00,59.7,49.5,29.85,WSW,247,2.2,-999.0,69,-99.99,,,0.00,Acu-Link.com,2013-04-09 10:02:00,
2013-04-09 06:18:00,59.5,49.3,29.86,WSW,247,2.7,-999.0,69,-99.99,,,0.00,Acu-Link.com,2013-04-09 10:18:00,
2013-04-09 06:33:00,59.4,49.6,29.87,WSW,247,2.7,-999.0,70,-99.99,,,0.00,Acu-Link.com,2013-04-09 10:33:00,
2013-04-09 06:48:00,59.2,49.4,29.87,WNW,292,2.7,-999.0,70,-99.99,,,0.00,Acu-Link.com,2013-04-09 10:48:00,
2013-04-09 07:03:00,59.2,49.4,29.88,SW,225,4.2,-999.0,70,-99.99,,,0.00,Acu-Link.com,2013-04-09 11:03:00,
2013-04-09 07:43:00,60.1,49.9,29.91,SW,225,2.2,-999.0,69,-99.99,,,0.00,Acu-Link.com,2013-04-09 11:43:00,
2013-04-09 08:14:00,61.5,49.6,29.92,NW,315,2.7,-999.0,65,-99.99,,,0.00,Acu-Link.com,2013-04-09 12:14:00,
2013-04-09 08:29:00,62.8,46.9,29.92,WSW,247,3.2,-999.0,56,-99.99,,,0.00,Acu-Link.com,2013-04-09 12:29:00,
2013-04-09 08:44:00,64.0,46.5,29.94,SSE,157,4.2,-999.0,53,-99.99,,,0.00,Acu-Link.com,2013-04-09 12:44:00,
2013-04-09 09:31:00,70.9,46.0,29.94,NE,45,0.0,-999.0,41,-99.99,,,0.00,Acu-Link.com,2013-04-09 13:31:00,
2013-04-09 10:02:00,73.0,43.7,29.94,WNW,292,2.7,-999.0,35,-99.99,,,0.00,Acu-Link.com,2013-04-09 14:02:00,
2013-04-09 10:33:00,72.7,42.7,29.95,West,270,2.2,-999.0,34,-99.99,,,0.00,Acu-Link.com,2013-04-09 14:33:00,
2013-04-09 10:48:00,73.4,43.3,29.95,NNW,337,1.7,-999.0,34,-99.99,,,0.00,Acu-Link.com,2013-04-09 14:48:00,
2013-04-09 11:03:00,75.4,43.5,29.95,South,180,2.2,-999.0,32,-99.99,,,0.00,Acu-Link.com,2013-04-09 15:03:00,
2013-04-09 11:19:00,76.5,43.6,29.94,SW,225,2.7,-999.0,31,-99.99,,,0.00,Acu-Link.com,2013-04-09 15:19:00,
2013-04-09 11:34:00,77.4,42.6,29.95,West,270,1.7,-999.0,29,-99.99,,,0.00,Acu-Link.com,2013-04-09 15:34:00,
2013-04-09 11:49:00,77.2,42.5,29.94,SSW,202,2.2,-999.0,29,-99.99,,,0.00,Acu-Link.com,2013-04-09 15:49:00,
2013-04-09 12:04:00,77.2,41.6,29.94,West,270,2.7,-999.0,28,-99.99,,,0.00,Acu-Link.com,2013-04-09 16:04:00,
2013-04-09 12:19:00,80.6,42.5,29.92,West,270,1.7,-999.0,26,-99.99,,,0.00,Acu-Link.com,2013-04-09 16:19:00,
2013-04-09 12:35:00,78.8,41.0,29.92,West,270,4.7,-999.0,26,-99.99,,,0.00,Acu-Link.com,2013-04-09 16:35:00,
2013-04-09 12:50:00,81.9,42.6,29.92,WSW,247,3.7,-999.0,25,-99.99,,,0.00,Acu-Link.com,2013-04-09 16:50:00,
2013-04-09 13:05:00,81.9,40.4,29.90,NNW,337,4.7,-999.0,23,-99.99,,,0.00,Acu-Link.com,2013-04-09 17:05:00,
2013-04-09 13:20:00,83.1,40.3,29.90,WSW,247,5.3,-999.0,22,-99.99,,,0.00,Acu-Link.com,2013-04-09 17:20:00,
2013-04-09 13:36:00,81.1,40.9,29.89,WNW,292,4.7,-999.0,24,-99.99,,,0.00,Acu-Link.com,2013-04-09 17:36:00,
2013-04-09 13:51:00,81.9,41.5,29.86,SW,225,3.2,-999.0,24,-99.99,,,0.00,Acu-Link.com,2013-04-09 17:51:00,
2013-04-09 14:21:00,83.8,42.0,29.84,WSW,247,5.3,-999.0,23,-99.99,,,0.00,Acu-Link.com,2013-04-09 18:21:00,
2013-04-09 14:52:00,81.9,43.6,29.82,WSW,247,3.2,-999.0,26,-99.99,,,0.00,Acu-Link.com,2013-04-09 18:52:00,
2013-04-09 15:22:00,83.1,44.6,29.81,ESE,112,4.2,-999.0,26,-99.99,,,0.00,Acu-Link.com,2013-04-09 19:22:00,
2013-04-09 15:37:00,83.7,45.1,29.81,WSW,247,3.7,-999.0,26,-99.99,,,0.00,Acu-Link.com,2013-04-09 19:37:00,
2013-04-09 15:53:00,82.2,43.9,29.80,SW,225,3.7,-999.0,26,-99.99,,,0.00,Acu-Link.com,2013-04-09 19:53:00,
2013-04-09 16:08:00,84.4,44.7,29.79,ESE,112,2.2,-999.0,25,-99.99,,,0.00,Acu-Link.com,2013-04-09 20:08:00,
2013-04-09 16:23:00,80.8,42.7,29.79,WSW,247,3.7,-999.0,26,-99.99,,,0.00,Acu-Link.com,2013-04-09 20:23:00,
2013-04-09 16:38:00,81.7,44.4,29.79,WNW,292,4.2,-999.0,27,-99.99,,,0.00,Acu-Link.com,2013-04-09 20:38:00,
2013-04-09 17:09:00,81.1,45.8,29.80,NE,45,3.7,-999.0,29,-99.99,,,0.00,Acu-Link.com,2013-04-09 21:09:00,
2013-04-09 17:24:00,80.8,46.4,29.80,West,270,4.2,-999.0,30,-99.99,,,0.00,Acu-Link.com,2013-04-09 21:24:00,
2013-04-09 17:39:00,80.4,47.0,29.80,SW,225,2.7,-999.0,31,-99.99,,,0.00,Acu-Link.com,2013-04-09 21:39:00,
2013-04-09 17:54:00,80.6,48.0,29.81,West,270,3.2,-999.0,32,-99.99,,,0.00,Acu-Link.com,2013-04-09 21:54:00,
2013-04-09 18:09:00,79.5,48.7,29.81,SSW,202,1.1,-999.0,34,-99.99,,,0.00,Acu-Link.com,2013-04-09 22:09:00,
2013-04-09 18:25:00,79.9,49.0,29.81,SSE,157,2.7,-999.0,34,-99.99,,,0.00,Acu-Link.com,2013-04-09 22:25:00,
2013-04-09 18:40:00,78.8,49.6,29.81,WSW,247,2.7,-999.0,36,-99.99,,,0.00,Acu-Link.com,2013-04-09 22:40:00,
2013-04-09 18:55:00,77.5,48.4,29.80,WSW,247,1.1,-999.0,36,-99.99,,,0.00,Acu-Link.com,2013-04-09 22:55:00,
2013-04-09 19:10:00,76.3,48.8,29.80,WNW,292,0.0,-999.0,38,-99.99,,,0.00,Acu-Link.com,2013-04-09 23:10:00,
2013-04-09 19:26:00,75.0,49.0,29.80,NNE,22,0.0,-999.0,40,-99.99,,,0.00,Acu-Link.com,2013-04-09 23:26:00,
2013-04-09 19:41:00,73.9,50.0,29.80,South,180,0.0,-999.0,43,-99.99,,,0.00,Acu-Link.com,2013-04-09 23:41:00,
2013-04-09 19:56:00,73.0,49.2,29.80,NNW,337,0.0,-999.0,43,-99.99,,,0.00,Acu-Link.com,2013-04-09 23:56:00,
2013-04-09 20:26:00,71.2,49.9,29.81,West,270,0.0,-999.0,47,-99.99,,,0.00,Acu-Link.com,2013-04-10 00:26:00,
2013-04-09 20:42:00,70.2,50.1,29.80,West,270,0.0,-999.0,49,-99.99,,,0.00,Acu-Link.com,2013-04-10 00:42:00,
2013-04-09 20:57:00,69.4,50.5,29.79,West,270,0.0,-999.0,51,-99.99,,,0.00,Acu-Link.com,2013-04-10 00:57:00,
2013-04-09 21:12:00,68.9,50.0,29.77,West,270,0.0,-999.0,51,-99.99,,,0.00,Acu-Link.com,2013-04-10 01:12:00,
2013-04-09 21:42:00,68.4,50.1,29.77,NW,315,0.0,-999.0,52,-99.99,,,0.00,Acu-Link.com,2013-04-10 01:42:00,
2013-04-09 21:58:00,67.6,49.9,29.78,West,270,0.0,-999.0,53,-99.99,,,0.00,Acu-Link.com,2013-04-10 01:58:00,
2013-04-09 22:28:00,66.7,50.0,29.77,West,270,1.7,-999.0,55,-99.99,,,0.00,Acu-Link.com,2013-04-10 02:28:00,
2013-04-09 22:43:00,66.2,50.5,29.75,NE,45,1.1,-999.0,57,-99.99,,,0.00,Acu-Link.com,2013-04-10 02:43:00,
2013-04-09 22:58:00,66.2,51.0,29.74,NW,315,1.1,-999.0,58,-99.99,,,0.00,Acu-Link.com,2013-04-10 02:58:00,
2013-04-09 23:14:00,67.1,50.9,29.74,WNW,292,1.1,-999.0,56,-99.99,,,0.00,Acu-Link.com,2013-04-10 03:14:00,
2013-04-09 23:29:00,67.1,51.4,29.73,West,270,0.0,-999.0,57,-99.99,,,0.00,Acu-Link.com,2013-04-10 03:29:00,
2013-04-09 23:44:00,67.1,51.4,29.74,WSW,247,0.0,-999.0,57,-99.99,,,0.00,Acu-Link.com,2013-04-10 03:44:00,
2013-04-09 23:59:00,66.9,51.6,29.74,West,270,0.0,-999.0,58,-99.99,,,0.00,Acu-Link.com,2013-04-10 03:59:00,